sensor_id;sensor_type;location;lat;lon;timestamp;pressure;altitude;pressure_sealevel;temperature;humidity
23361;BME280;11852;50.082;18.554;2023-10-19T00:00:37;97941.0;;;5.95;78.32
23361;BME280;11852;50.082;18.554;2023-10-19T00:01:41;97940.5;;;5.93;78.39
23361;BME280;11852;50.082;18.554;2023-10-19T00:02:49;97937.5;;;5.93;78.37
23361;BME280;11852;50.082;18.554;2023-10-19T00:03:54;97935.0;;;5.86;78.46
23361;BME280;11852;50.082;18.554;2023-10-19T00:05:01;97935.0;;;5.82;78.65
23361;BME280;11852;50.082;18.554;2023-10-19T00:06:06;97933.5;;;5.88;78.62
23361;BME280;11852;50.082;18.554;2023-10-19T00:07:11;97927.5;;;5.86;78.66
23361;BME280;11852;50.082;18.554;2023-10-19T00:08:21;97927.0;;;5.86;78.65
23361;BME280;11852;50.082;18.554;2023-10-19T00:09:26;97923.0;;;5.87;78.67
23361;BME280;11852;50.082;18.554;2023-10-19T00:10:39;97922.5;;;5.87;78.67
23361;BME280;11852;50.082;18.554;2023-10-19T00:11:43;97923.0;;;5.84;78.7
23361;BME280;11852;50.082;18.554;2023-10-19T00:12:48;97918.5;;;5.85;78.68
23361;BME280;11852;50.082;18.554;2023-10-19T00:13:56;97914.5;;;5.82;78.81
23361;BME280;11852;50.082;18.554;2023-10-19T00:15:03;97911.0;;;5.83;78.88
23361;BME280;11852;50.082;18.554;2023-10-19T00:16:12;97908.0;;;5.8;78.96
23361;BME280;11852;50.082;18.554;2023-10-19T00:17:17;97907.0;;;5.68;79.17
23361;BME280;11852;50.082;18.554;2023-10-19T00:18:23;97906.0;;;5.74;78.96
23361;BME280;11852;50.082;18.554;2023-10-19T00:19:30;97903.5;;;5.78;78.97
23361;BME280;11852;50.082;18.554;2023-10-19T00:20:40;97905.51;;;5.76;79.07
23361;BME280;11852;50.082;18.554;2023-10-19T00:21:50;97902.0;;;5.74;79.21
23361;BME280;11852;50.082;18.554;2023-10-19T00:22:55;97900.0;;;5.72;79.03
23361;BME280;11852;50.082;18.554;2023-10-19T00:24:02;97896.5;;;5.71;79.02
23361;BME280;11852;50.082;18.554;2023-10-19T00:25:07;97892.0;;;5.66;79.18
23361;BME280;11852;50.082;18.554;2023-10-19T00:26:18;97893.5;;;5.62;79.26
23361;BME280;11852;50.082;18.554;2023-10-19T00:27:23;97890.5;;;5.57;79.37
23361;BME280;11852;50.082;18.554;2023-10-19T00:28:28;97889.5;;;5.52;79.47
23361;BME280;11852;50.082;18.554;2023-10-19T00:29:33;97891.0;;;5.53;79.6
23361;BME280;11852;50.082;18.554;2023-10-19T00:30:43;97889.0;;;5.48;79.69
23361;BME280;11852;50.082;18.554;2023-10-19T00:31:47;97885.5;;;5.45;79.85
23361;BME280;11852;50.082;18.554;2023-10-19T00:32:52;97885.0;;;5.47;79.81
23361;BME280;11852;50.082;18.554;2023-10-19T00:33:57;97883.0;;;5.5;79.82
23361;BME280;11852;50.082;18.554;2023-10-19T00:35:03;97880.5;;;5.48;79.94
23361;BME280;11852;50.082;18.554;2023-10-19T00:36:08;97884.0;;;5.49;79.69
23361;BME280;11852;50.082;18.554;2023-10-19T00:37:12;97878.5;;;5.52;79.6
23361;BME280;11852;50.082;18.554;2023-10-19T00:38:18;97879.0;;;5.55;79.69
23361;BME280;11852;50.082;18.554;2023-10-19T00:39:23;97875.0;;;5.53;79.67
23361;BME280;11852;50.082;18.554;2023-10-19T00:40:35;97875.5;;;5.49;79.9
23361;BME280;11852;50.082;18.554;2023-10-19T00:41:40;97869.99;;;5.55;79.69
23361;BME280;11852;50.082;18.554;2023-10-19T00:42:45;97870.49;;;5.56;79.7
23361;BME280;11852;50.082;18.554;2023-10-19T00:43:53;97870.49;;;5.55;79.68
23361;BME280;11852;50.082;18.554;2023-10-19T00:44:58;97875.0;;;5.59;79.5
23361;BME280;11852;50.082;18.554;2023-10-19T00:46:05;97874.5;;;5.61;79.28
23361;BME280;11852;50.082;18.554;2023-10-19T00:47:14;97872.5;;;5.64;79.07
23361;BME280;11852;50.082;18.554;2023-10-19T00:48:19;97871.5;;;5.65;79.04
23361;BME280;11852;50.082;18.554;2023-10-19T00:49:24;97871.5;;;5.66;78.97
23361;BME280;11852;50.082;18.554;2023-10-19T00:50:33;97869.5;;;5.62;78.98
23361;BME280;11852;50.082;18.554;2023-10-19T00:51:50;97867.5;;;5.6;79.01
23361;BME280;11852;50.082;18.554;2023-10-19T00:52:53;97865.0;;;5.63;78.85
23361;BME280;11852;50.082;18.554;2023-10-19T00:55:13;97859.5;;;5.64;78.99
23361;BME280;11852;50.082;18.554;2023-10-19T00:56:19;97857.99;;;5.64;78.94
23361;BME280;11852;50.082;18.554;2023-10-19T00:57:25;97855.5;;;5.67;78.93
23361;BME280;11852;50.082;18.554;2023-10-19T00:58:30;97854.0;;;5.62;79.15
23361;BME280;11852;50.082;18.554;2023-10-19T00:59:40;97849.5;;;5.63;79.05
23361;BME280;11852;50.082;18.554;2023-10-19T01:00:45;97847.0;;;5.64;79.0
23361;BME280;11852;50.082;18.554;2023-10-19T01:01:56;97845.49;;;5.64;79.06
23361;BME280;11852;50.082;18.554;2023-10-19T01:03:01;97839.5;;;5.68;79.08
23361;BME280;11852;50.082;18.554;2023-10-19T01:04:06;97837.0;;;5.61;78.99
23361;BME280;11852;50.082;18.554;2023-10-19T01:05:11;97834.0;;;5.69;78.85
23361;BME280;11852;50.082;18.554;2023-10-19T01:06:16;97833.5;;;5.66;79.04
23361;BME280;11852;50.082;18.554;2023-10-19T01:07:29;97828.0;;;5.67;78.97
23361;BME280;11852;50.082;18.554;2023-10-19T01:08:33;97825.0;;;5.66;78.94
23361;BME280;11852;50.082;18.554;2023-10-19T01:09:38;97820.49;;;5.65;78.85
23361;BME280;11852;50.082;18.554;2023-10-19T01:10:43;97819.0;;;5.65;78.69
23361;BME280;11852;50.082;18.554;2023-10-19T01:11:48;97815.5;;;5.68;78.7
23361;BME280;11852;50.082;18.554;2023-10-19T01:12:53;97812.0;;;5.69;78.57
23361;BME280;11852;50.082;18.554;2023-10-19T01:13:58;97807.5;;;5.64;78.59
23361;BME280;11852;50.082;18.554;2023-10-19T01:16:24;97806.5;;;5.28;79.42
23361;BME280;11852;50.082;18.554;2023-10-19T01:17:29;97806.5;;;5.38;79.18
23361;BME280;11852;50.082;18.554;2023-10-19T01:18:34;97802.5;;;5.41;79.08
23361;BME280;11852;50.082;18.554;2023-10-19T01:19:39;97801.0;;;5.44;78.96
23361;BME280;11852;50.082;18.554;2023-10-19T01:20:48;97797.5;;;5.47;79.02
23361;BME280;11852;50.082;18.554;2023-10-19T01:21:53;97799.5;;;5.49;78.88
23361;BME280;11852;50.082;18.554;2023-10-19T01:23:06;97794.0;;;5.56;78.74
23361;BME280;11852;50.082;18.554;2023-10-19T01:24:10;97792.01;;;5.54;78.79
23361;BME280;11852;50.082;18.554;2023-10-19T01:25:15;97785.0;;;5.55;78.75
23361;BME280;11852;50.082;18.554;2023-10-19T01:26:23;97782.49;;;5.55;78.76
23361;BME280;11852;50.082;18.554;2023-10-19T01:27:28;97779.51;;;5.45;78.97
23361;BME280;11852;50.082;18.554;2023-10-19T01:28:38;97781.5;;;5.42;78.96
23361;BME280;11852;50.082;18.554;2023-10-19T01:29:43;97779.5;;;5.41;78.91
23361;BME280;11852;50.082;18.554;2023-10-19T01:30:52;97780.0;;;5.4;78.87
23361;BME280;11852;50.082;18.554;2023-10-19T01:31:57;97777.5;;;5.44;78.81
23361;BME280;11852;50.082;18.554;2023-10-19T01:33:03;97778.0;;;5.41;79.04
23361;BME280;11852;50.082;18.554;2023-10-19T01:34:08;97775.5;;;5.43;78.82
23361;BME280;11852;50.082;18.554;2023-10-19T01:35:13;97776.0;;;5.41;79.01
23361;BME280;11852;50.082;18.554;2023-10-19T01:36:23;97777.0;;;5.38;79.18
23361;BME280;11852;50.082;18.554;2023-10-19T01:37:28;97769.5;;;5.39;79.18
23361;BME280;11852;50.082;18.554;2023-10-19T01:38:34;97769.99;;;5.41;79.03
23361;BME280;11852;50.082;18.554;2023-10-19T01:39:39;97770.0;;;5.35;79.21
23361;BME280;11852;50.082;18.554;2023-10-19T01:40:44;97769.99;;;5.39;79.07
23361;BME280;11852;50.082;18.554;2023-10-19T01:41:49;97768.5;;;5.36;79.01
23361;BME280;11852;50.082;18.554;2023-10-19T01:42:58;97765.0;;;5.3;79.16
23361;BME280;11852;50.082;18.554;2023-10-19T01:44:03;97763.0;;;5.23;79.36
23361;BME280;11852;50.082;18.554;2023-10-19T01:45:08;97758.0;;;5.18;79.59
23361;BME280;11852;50.082;18.554;2023-10-19T01:46:14;97754.51;;;5.18;79.72
23361;BME280;11852;50.082;18.554;2023-10-19T01:47:19;97753.0;;;5.19;79.71
23361;BME280;11852;50.082;18.554;2023-10-19T01:48:29;97753.0;;;5.24;79.53
23361;BME280;11852;50.082;18.554;2023-10-19T01:49:34;97754.51;;;5.22;79.57
23361;BME280;11852;50.082;18.554;2023-10-19T01:50:41;97755.0;;;5.24;79.38
23361;BME280;11852;50.082;18.554;2023-10-19T01:51:46;97757.0;;;5.26;79.4
23361;BME280;11852;50.082;18.554;2023-10-19T01:52:52;97755.0;;;5.22;79.51
23361;BME280;11852;50.082;18.554;2023-10-19T01:53:57;97758.0;;;5.18;79.52
23361;BME280;11852;50.082;18.554;2023-10-19T01:55:02;97755.01;;;5.24;79.39
23361;BME280;11852;50.082;18.554;2023-10-19T01:56:06;97749.5;;;5.24;79.54
23361;BME280;11852;50.082;18.554;2023-10-19T01:57:12;97741.5;;;5.27;79.49
23361;BME280;11852;50.082;18.554;2023-10-19T01:58:21;97739.5;;;5.28;79.47
23361;BME280;11852;50.082;18.554;2023-10-19T01:59:29;97736.5;;;5.25;79.35
23361;BME280;11852;50.082;18.554;2023-10-19T02:00:34;97736.0;;;5.21;79.33
23361;BME280;11852;50.082;18.554;2023-10-19T02:01:40;97734.0;;;5.22;79.32
23361;BME280;11852;50.082;18.554;2023-10-19T02:02:45;97732.0;;;5.21;79.42
23361;BME280;11852;50.082;18.554;2023-10-19T02:03:51;97731.0;;;5.22;79.37
23361;BME280;11852;50.082;18.554;2023-10-19T02:04:56;97729.51;;;5.24;79.29
23361;BME280;11852;50.082;18.554;2023-10-19T02:06:01;97727.5;;;5.2;79.33
23361;BME280;11852;50.082;18.554;2023-10-19T02:07:06;97731.0;;;5.18;79.38
23361;BME280;11852;50.082;18.554;2023-10-19T02:08:11;97730.0;;;5.19;79.36
23361;BME280;11852;50.082;18.554;2023-10-19T02:09:24;97729.0;;;5.22;79.32
23361;BME280;11852;50.082;18.554;2023-10-19T02:10:29;97727.0;;;5.01;79.74
23361;BME280;11852;50.082;18.554;2023-10-19T02:11:34;97727.5;;;4.99;79.85
23361;BME280;11852;50.082;18.554;2023-10-19T02:12:39;97728.0;;;4.98;79.92
23361;BME280;11852;50.082;18.554;2023-10-19T02:13:45;97724.5;;;4.98;79.95
23361;BME280;11852;50.082;18.554;2023-10-19T02:14:50;97725.0;;;4.94;79.97
23361;BME280;11852;50.082;18.554;2023-10-19T02:15:55;97721.5;;;4.94;80.07
23361;BME280;11852;50.082;18.554;2023-10-19T02:17:00;97723.0;;;4.82;80.46
23361;BME280;11852;50.082;18.554;2023-10-19T02:18:05;97718.5;;;4.84;80.44
23361;BME280;11852;50.082;18.554;2023-10-19T02:19:10;97718.01;;;4.84;80.47
23361;BME280;11852;50.082;18.554;2023-10-19T02:20:15;97714.0;;;4.81;80.57
23361;BME280;11852;50.082;18.554;2023-10-19T02:21:23;97714.5;;;4.83;80.46
23361;BME280;11852;50.082;18.554;2023-10-19T02:22:29;97713.5;;;4.78;80.68
23361;BME280;11852;50.082;18.554;2023-10-19T02:23:36;97709.0;;;4.72;80.85
23361;BME280;11852;50.082;18.554;2023-10-19T02:24:41;97708.0;;;4.68;80.88
23361;BME280;11852;50.082;18.554;2023-10-19T02:25:52;97707.49;;;4.68;81.2
23361;BME280;11852;50.082;18.554;2023-10-19T02:26:58;97706.01;;;4.67;81.01
23361;BME280;11852;50.082;18.554;2023-10-19T02:28:06;97699.5;;;4.7;80.99
23361;BME280;11852;50.082;18.554;2023-10-19T02:29:08;97703.0;;;4.64;81.15
23361;BME280;11852;50.082;18.554;2023-10-19T02:30:13;97697.0;;;4.69;80.92
23361;BME280;11852;50.082;18.554;2023-10-19T02:31:20;97691.0;;;4.64;81.1
23361;BME280;11852;50.082;18.554;2023-10-19T02:32:25;97690.0;;;4.66;81.08
23361;BME280;11852;50.082;18.554;2023-10-19T02:33:30;97686.5;;;4.61;81.26
23361;BME280;11852;50.082;18.554;2023-10-19T02:34:35;97685.0;;;4.64;81.13
23361;BME280;11852;50.082;18.554;2023-10-19T02:35:40;97682.49;;;4.59;81.28
23361;BME280;11852;50.082;18.554;2023-10-19T02:36:45;97679.0;;;4.55;81.42
23361;BME280;11852;50.082;18.554;2023-10-19T02:37:50;97676.5;;;4.58;81.25
23361;BME280;11852;50.082;18.554;2023-10-19T02:39:05;97677.0;;;4.63;81.13
23361;BME280;11852;50.082;18.554;2023-10-19T02:40:00;97676.5;;;4.65;81.15
23361;BME280;11852;50.082;18.554;2023-10-19T02:41:05;97675.5;;;4.61;81.08
23361;BME280;11852;50.082;18.554;2023-10-19T02:42:10;97672.0;;;4.65;81.05
23361;BME280;11852;50.082;18.554;2023-10-19T02:43:15;97672.0;;;4.66;81.1
23361;BME280;11852;50.082;18.554;2023-10-19T02:44:35;97671.5;;;4.66;81.13
23361;BME280;11852;50.082;18.554;2023-10-19T02:45:40;97668.99;;;4.67;81.06
23361;BME280;11852;50.082;18.554;2023-10-19T02:46:45;97667.0;;;4.72;80.81
23361;BME280;11852;50.082;18.554;2023-10-19T02:47:50;97664.5;;;4.66;80.97
23361;BME280;11852;50.082;18.554;2023-10-19T02:48:55;97659.5;;;4.65;80.99
23361;BME280;11852;50.082;18.554;2023-10-19T02:50:00;97661.0;;;4.68;80.93
23361;BME280;11852;50.082;18.554;2023-10-19T02:51:08;97658.5;;;4.6;81.13
23361;BME280;11852;50.082;18.554;2023-10-19T02:52:13;97656.5;;;4.61;81.1
23361;BME280;11852;50.082;18.554;2023-10-19T02:53:18;97655.01;;;4.65;81.03
23361;BME280;11852;50.082;18.554;2023-10-19T02:54:23;97655.51;;;4.65;81.12
23361;BME280;11852;50.082;18.554;2023-10-19T02:55:31;97655.0;;;4.69;80.91
23361;BME280;11852;50.082;18.554;2023-10-19T02:56:35;97653.0;;;4.74;80.84
23361;BME280;11852;50.082;18.554;2023-10-19T02:57:40;97648.5;;;4.74;80.77
23361;BME280;11852;50.082;18.554;2023-10-19T02:58:49;97641.5;;;4.74;80.69
23361;BME280;11852;50.082;18.554;2023-10-19T02:59:54;97640.5;;;4.71;80.79
23361;BME280;11852;50.082;18.554;2023-10-19T03:00:59;97636.0;;;4.74;80.72
23361;BME280;11852;50.082;18.554;2023-10-19T03:02:07;97634.0;;;4.78;80.65
23361;BME280;11852;50.082;18.554;2023-10-19T03:03:12;97631.5;;;4.76;80.72
23361;BME280;11852;50.082;18.554;2023-10-19T03:04:18;97629.0;;;4.78;80.62
23361;BME280;11852;50.082;18.554;2023-10-19T03:05:23;97625.0;;;4.81;80.49
23361;BME280;11852;50.082;18.554;2023-10-19T03:06:31;97628.5;;;4.82;80.47
23361;BME280;11852;50.082;18.554;2023-10-19T03:07:36;97627.5;;;4.85;80.35
23361;BME280;11852;50.082;18.554;2023-10-19T03:08:41;97625.5;;;4.86;80.38
23361;BME280;11852;50.082;18.554;2023-10-19T03:09:49;97626.5;;;4.86;80.24
23361;BME280;11852;50.082;18.554;2023-10-19T03:10:54;97622.5;;;4.83;80.28
23361;BME280;11852;50.082;18.554;2023-10-19T03:12:10;97621.0;;;4.82;80.28
23361;BME280;11852;50.082;18.554;2023-10-19T03:13:15;97618.0;;;4.88;80.15
23361;BME280;11852;50.082;18.554;2023-10-19T03:14:20;97615.0;;;4.8;80.28
23361;BME280;11852;50.082;18.554;2023-10-19T03:15:26;97618.01;;;4.81;80.26
23361;BME280;11852;50.082;18.554;2023-10-19T03:16:30;97618.5;;;4.83;80.26
23361;BME280;11852;50.082;18.554;2023-10-19T03:17:36;97616.0;;;4.73;80.57
23361;BME280;11852;50.082;18.554;2023-10-19T03:18:42;97616.5;;;4.74;80.46
23361;BME280;11852;50.082;18.554;2023-10-19T03:19:47;97614.0;;;4.81;80.38
23361;BME280;11852;50.082;18.554;2023-10-19T03:20:52;97612.0;;;4.74;80.63
23361;BME280;11852;50.082;18.554;2023-10-19T03:21:57;97609.5;;;4.73;80.71
23361;BME280;11852;50.082;18.554;2023-10-19T03:23:07;97612.0;;;4.77;80.6
23361;BME280;11852;50.082;18.554;2023-10-19T03:24:12;97613.0;;;4.78;80.6
23361;BME280;11852;50.082;18.554;2023-10-19T03:25:22;97607.49;;;4.73;80.85
23361;BME280;11852;50.082;18.554;2023-10-19T03:26:32;97611.0;;;4.78;80.63
23361;BME280;11852;50.082;18.554;2023-10-19T03:27:37;97609.5;;;4.74;80.76
23361;BME280;11852;50.082;18.554;2023-10-19T03:28:44;97611.0;;;4.72;80.9
23361;BME280;11852;50.082;18.554;2023-10-19T03:29:54;97609.0;;;4.69;80.92
23361;BME280;11852;50.082;18.554;2023-10-19T03:30:59;97608.5;;;4.72;80.91
23361;BME280;11852;50.082;18.554;2023-10-19T03:32:05;97604.0;;;4.77;80.88
23361;BME280;11852;50.082;18.554;2023-10-19T03:33:10;97603.5;;;4.86;80.78
23361;BME280;11852;50.082;18.554;2023-10-19T03:34:17;97602.5;;;4.82;80.97
23361;BME280;11852;50.082;18.554;2023-10-19T03:35:22;97603.0;;;4.81;81.06
23361;BME280;11852;50.082;18.554;2023-10-19T03:36:27;97603.0;;;4.85;80.98
23361;BME280;11852;50.082;18.554;2023-10-19T03:37:33;97603.5;;;4.89;80.95
23361;BME280;11852;50.082;18.554;2023-10-19T03:38:39;97602.0;;;4.86;81.13
23361;BME280;11852;50.082;18.554;2023-10-19T03:39:43;97602.0;;;4.9;81.03
23361;BME280;11852;50.082;18.554;2023-10-19T03:40:52;97601.5;;;4.92;81.15
23361;BME280;11852;50.082;18.554;2023-10-19T03:41:56;97603.0;;;4.95;81.12
23361;BME280;11852;50.082;18.554;2023-10-19T03:43:02;97603.0;;;5.01;80.83
23361;BME280;11852;50.082;18.554;2023-10-19T03:44:07;97597.5;;;5.09;80.79
23361;BME280;11852;50.082;18.554;2023-10-19T03:45:13;97599.5;;;4.98;81.14
23361;BME280;11852;50.082;18.554;2023-10-19T03:46:23;97593.0;;;5.05;80.74
23361;BME280;11852;50.082;18.554;2023-10-19T03:47:33;97595.0;;;5.06;80.79
23361;BME280;11852;50.082;18.554;2023-10-19T03:48:38;97591.5;;;5.07;80.79
23361;BME280;11852;50.082;18.554;2023-10-19T03:49:43;97589.0;;;5.17;80.57
23361;BME280;11852;50.082;18.554;2023-10-19T03:50:49;97582.99;;;5.16;80.61
23361;BME280;11852;50.082;18.554;2023-10-19T03:51:58;97581.5;;;5.18;80.54
23361;BME280;11852;50.082;18.554;2023-10-19T03:53:03;97580.01;;;5.21;80.46
23361;BME280;11852;50.082;18.554;2023-10-19T03:54:13;97582.0;;;5.26;80.35
23361;BME280;11852;50.082;18.554;2023-10-19T03:55:19;97580.51;;;5.3;80.29
23361;BME280;11852;50.082;18.554;2023-10-19T03:56:24;97575.0;;;5.36;80.21
23361;BME280;11852;50.082;18.554;2023-10-19T03:57:32;97573.0;;;5.35;80.31
23361;BME280;11852;50.082;18.554;2023-10-19T03:58:37;97571.0;;;5.36;80.29
23361;BME280;11852;50.082;18.554;2023-10-19T03:59:42;97567.5;;;5.41;80.1
23361;BME280;11852;50.082;18.554;2023-10-19T04:00:54;97565.5;;;5.42;80.0
23361;BME280;11852;50.082;18.554;2023-10-19T04:01:59;97565.0;;;5.51;79.93
23361;BME280;11852;50.082;18.554;2023-10-19T04:03:04;97560.5;;;5.55;79.85
23361;BME280;11852;50.082;18.554;2023-10-19T04:04:10;97559.5;;;5.61;79.72
23361;BME280;11852;50.082;18.554;2023-10-19T04:05:14;97554.51;;;5.6;79.73
23361;BME280;11852;50.082;18.554;2023-10-19T04:06:21;97559.0;;;5.64;79.64
23361;BME280;11852;50.082;18.554;2023-10-19T04:07:26;97555.5;;;5.68;79.65
23361;BME280;11852;50.082;18.554;2023-10-19T04:08:31;97557.5;;;5.67;79.69
23361;BME280;11852;50.082;18.554;2023-10-19T04:09:36;97555.5;;;5.7;79.57
23361;BME280;11852;50.082;18.554;2023-10-19T04:11:44;97555.5;;;5.7;79.57
23361;BME280;11852;50.082;18.554;2023-10-19T04:13:48;97555.5;;;5.7;79.57
23361;BME280;11852;50.082;18.554;2023-10-19T04:14:53;97548.5;;;5.72;79.49
23361;BME280;11852;50.082;18.554;2023-10-19T04:16:03;97536.5;;;5.72;79.85
23361;BME280;11852;50.082;18.554;2023-10-19T04:17:08;97533.0;;;5.66;79.81
23361;BME280;11852;50.082;18.554;2023-10-19T04:18:14;97533.0;;;5.73;79.6
23361;BME280;11852;50.082;18.554;2023-10-19T04:19:19;97529.0;;;5.76;79.65
23361;BME280;11852;50.082;18.554;2023-10-19T04:20:25;97528.0;;;5.76;79.6
23361;BME280;11852;50.082;18.554;2023-10-19T04:21:30;97530.5;;;5.81;79.47
23361;BME280;11852;50.082;18.554;2023-10-19T04:22:35;97519.5;;;5.84;79.42
23361;BME280;11852;50.082;18.554;2023-10-19T04:23:42;97520.49;;;5.83;79.43
23361;BME280;11852;50.082;18.554;2023-10-19T04:24:48;97517.51;;;5.86;79.43
23361;BME280;11852;50.082;18.554;2023-10-19T04:25:53;97517.0;;;5.83;79.51
23361;BME280;11852;50.082;18.554;2023-10-19T04:26:58;97513.0;;;5.87;79.3
23361;BME280;11852;50.082;18.554;2023-10-19T04:28:03;97510.0;;;5.91;79.18
23361;BME280;11852;50.082;18.554;2023-10-19T04:29:11;97509.0;;;5.91;79.04
23361;BME280;11852;50.082;18.554;2023-10-19T04:30:17;97506.5;;;5.95;78.79
23361;BME280;11852;50.082;18.554;2023-10-19T04:31:22;97507.99;;;5.98;78.78
23361;BME280;11852;50.082;18.554;2023-10-19T04:32:28;97506.0;;;5.98;78.85
23361;BME280;11852;50.082;18.554;2023-10-19T04:33:32;97500.0;;;6.01;78.71
23361;BME280;11852;50.082;18.554;2023-10-19T04:34:37;97501.5;;;5.91;78.9
23361;BME280;11852;50.082;18.554;2023-10-19T04:36:01;97502.5;;;5.91;78.75
23361;BME280;11852;50.082;18.554;2023-10-19T04:37:06;97504.0;;;5.99;78.58
23361;BME280;11852;50.082;18.554;2023-10-19T04:38:10;97503.0;;;6.04;78.42
23361;BME280;11852;50.082;18.554;2023-10-19T04:39:16;97504.0;;;6.06;78.34
23361;BME280;11852;50.082;18.554;2023-10-19T04:40:21;97506.0;;;6.07;78.24
23361;BME280;11852;50.082;18.554;2023-10-19T04:41:28;97502.5;;;6.09;78.19
23361;BME280;11852;50.082;18.554;2023-10-19T04:42:32;97502.0;;;6.03;78.39
23361;BME280;11852;50.082;18.554;2023-10-19T04:43:38;97505.01;;;5.89;78.63
23361;BME280;11852;50.082;18.554;2023-10-19T04:44:43;97500.5;;;5.97;78.29
23361;BME280;11852;50.082;18.554;2023-10-19T04:45:48;97495.49;;;6.01;78.16
23361;BME280;11852;50.082;18.554;2023-10-19T04:47:08;97494.99;;;6.01;78.07
23361;BME280;11852;50.082;18.554;2023-10-19T04:48:13;97485.5;;;6.01;78.16
23361;BME280;11852;50.082;18.554;2023-10-19T04:49:18;97482.0;;;5.96;78.32
23361;BME280;11852;50.082;18.554;2023-10-19T04:50:23;97478.5;;;5.95;78.2
23361;BME280;11852;50.082;18.554;2023-10-19T04:51:28;97478.0;;;5.93;78.25
23361;BME280;11852;50.082;18.554;2023-10-19T04:52:50;97475.0;;;5.93;78.32
23361;BME280;11852;50.082;18.554;2023-10-19T04:53:55;97473.5;;;5.92;78.09
23361;BME280;11852;50.082;18.554;2023-10-19T04:55:00;97474.5;;;5.89;77.85
23361;BME280;11852;50.082;18.554;2023-10-19T04:56:05;97468.0;;;5.93;77.79
23361;BME280;11852;50.082;18.554;2023-10-19T04:57:10;97468.0;;;5.89;78.04
23361;BME280;11852;50.082;18.554;2023-10-19T04:58:17;97472.0;;;5.89;78.0
23361;BME280;11852;50.082;18.554;2023-10-19T04:59:22;97473.0;;;5.93;77.69
23361;BME280;11852;50.082;18.554;2023-10-19T05:00:27;97475.0;;;5.91;77.57
23361;BME280;11852;50.082;18.554;2023-10-19T05:01:35;97475.0;;;5.82;77.5
23361;BME280;11852;50.082;18.554;2023-10-19T05:02:42;97477.5;;;5.81;77.53
23361;BME280;11852;50.082;18.554;2023-10-19T05:03:47;97471.5;;;5.88;77.32
23361;BME280;11852;50.082;18.554;2023-10-19T05:04:52;97469.49;;;5.93;77.39
23361;BME280;11852;50.082;18.554;2023-10-19T05:05:57;97468.99;;;5.9;77.58
23361;BME280;11852;50.082;18.554;2023-10-19T05:07:02;97471.0;;;5.74;77.83
23361;BME280;11852;50.082;18.554;2023-10-19T05:08:07;97468.5;;;5.68;77.99
23361;BME280;11852;50.082;18.554;2023-10-19T05:09:12;97471.0;;;5.77;77.66
23361;BME280;11852;50.082;18.554;2023-10-19T05:10:18;97471.0;;;5.8;77.55
23361;BME280;11852;50.082;18.554;2023-10-19T05:11:23;97469.0;;;5.78;77.68
23361;BME280;11852;50.082;18.554;2023-10-19T05:12:28;97468.0;;;5.76;77.59
23361;BME280;11852;50.082;18.554;2023-10-19T05:13:33;97466.5;;;5.76;77.6
23361;BME280;11852;50.082;18.554;2023-10-19T05:14:38;97466.5;;;5.79;77.42
23361;BME280;11852;50.082;18.554;2023-10-19T05:15:43;97466.5;;;5.81;77.46
23361;BME280;11852;50.082;18.554;2023-10-19T05:16:48;97465.0;;;5.81;77.55
23361;BME280;11852;50.082;18.554;2023-10-19T05:17:53;97458.5;;;5.88;77.35
23361;BME280;11852;50.082;18.554;2023-10-19T05:18:58;97460.5;;;5.89;77.43
23361;BME280;11852;50.082;18.554;2023-10-19T05:20:04;97458.5;;;5.83;77.63
23361;BME280;11852;50.082;18.554;2023-10-19T05:21:20;97457.99;;;5.91;77.42
23361;BME280;11852;50.082;18.554;2023-10-19T05:22:25;97458.5;;;5.87;77.49
23361;BME280;11852;50.082;18.554;2023-10-19T05:23:30;97458.0;;;5.92;77.39
23361;BME280;11852;50.082;18.554;2023-10-19T05:24:35;97457.99;;;5.94;77.35
23361;BME280;11852;50.082;18.554;2023-10-19T05:25:40;97456.0;;;5.89;77.33
23361;BME280;11852;50.082;18.554;2023-10-19T05:26:45;97456.5;;;5.93;77.01
23361;BME280;11852;50.082;18.554;2023-10-19T05:27:50;97457.99;;;5.89;77.18
23361;BME280;11852;50.082;18.554;2023-10-19T05:28:55;97457.99;;;5.93;77.17
23361;BME280;11852;50.082;18.554;2023-10-19T05:30:01;97459.5;;;5.95;77.1
23361;BME280;11852;50.082;18.554;2023-10-19T05:31:06;97462.0;;;5.63;78.16
23361;BME280;11852;50.082;18.554;2023-10-19T05:32:11;97462.0;;;5.72;77.8
23361;BME280;11852;50.082;18.554;2023-10-19T05:33:16;97457.49;;;5.59;78.26
23361;BME280;11852;50.082;18.554;2023-10-19T05:34:24;97460.5;;;5.72;77.68
23361;BME280;11852;50.082;18.554;2023-10-19T05:35:29;97459.5;;;5.87;77.38
23361;BME280;11852;50.082;18.554;2023-10-19T05:36:34;97460.5;;;5.9;77.4
23361;BME280;11852;50.082;18.554;2023-10-19T05:37:39;97456.5;;;5.89;77.54
23361;BME280;11852;50.082;18.554;2023-10-19T05:38:44;97458.5;;;5.86;77.63
23361;BME280;11852;50.082;18.554;2023-10-19T05:39:50;97458.5;;;5.89;77.6
23361;BME280;11852;50.082;18.554;2023-10-19T05:40:56;97458.5;;;5.85;77.85
23361;BME280;11852;50.082;18.554;2023-10-19T05:42:00;97457.99;;;5.94;77.39
23361;BME280;11852;50.082;18.554;2023-10-19T05:43:07;97454.0;;;5.94;77.5
23361;BME280;11852;50.082;18.554;2023-10-19T05:44:12;97451.0;;;5.94;77.5
23361;BME280;11852;50.082;18.554;2023-10-19T05:45:27;97450.0;;;5.94;77.5
23361;BME280;11852;50.082;18.554;2023-10-19T05:46:31;97451.0;;;5.99;77.41
23361;BME280;11852;50.082;18.554;2023-10-19T05:47:36;97452.5;;;5.97;77.58
23361;BME280;11852;50.082;18.554;2023-10-19T05:48:42;97448.5;;;5.97;77.64
23361;BME280;11852;50.082;18.554;2023-10-19T05:49:47;97444.49;;;6.01;77.57
23361;BME280;11852;50.082;18.554;2023-10-19T05:50:52;97445.0;;;5.97;77.72
23361;BME280;11852;50.082;18.554;2023-10-19T05:51:57;97441.5;;;6.01;77.6
23361;BME280;11852;50.082;18.554;2023-10-19T05:53:03;97442.01;;;5.99;77.85
23361;BME280;11852;50.082;18.554;2023-10-19T05:54:08;97438.5;;;5.99;77.93
23361;BME280;11852;50.082;18.554;2023-10-19T05:55:13;97440.0;;;5.99;77.87
23361;BME280;11852;50.082;18.554;2023-10-19T05:56:19;97442.0;;;6.03;77.69
23361;BME280;11852;50.082;18.554;2023-10-19T05:57:24;97442.5;;;5.94;78.04
23361;BME280;11852;50.082;18.554;2023-10-19T05:58:29;97445.49;;;6.03;77.82
23361;BME280;11852;50.082;18.554;2023-10-19T05:59:34;97445.49;;;6.05;77.92